Time;durP1;ratioP1;P1;durP2;ratioP2;P2;SDS_P1;SDS_P2;PMS_P1;PMS_P2;Temp;Humidity;BMP_temperature;BMP_pressure;BME280_temperature;BME280_humidity;BME280_pressure;Samples;Min_cycle;Max_cycle;Signal;HPM_P1;HPM_P2
2022/07/30 00:02:18;;;;;;;6.60;5.07;;;5.30;99.90;;;;;;4998197;28;20217;-71
2022/07/30 00:04:45;;;;;;;8.13;5.63;;;4.80;99.90;;;;;;4998585;28;20182;-70
2022/07/30 00:07:11;;;;;;;6.30;4.77;;;5.30;99.90;;;;;;4998137;28;20602;-70
2022/07/30 00:09:36;;;;;;;13.13;5.90;;;5.60;99.90;;;;;;4998475;28;20201;-70
2022/07/30 00:12:04;;;;;;;8.27;5.27;;;5.20;99.90;;;;;;4998261;28;20601;-70
2022/07/30 00:14:31;;;;;;;8.77;5.90;;;5.70;99.90;;;;;;4997921;28;20458;-71
2022/07/30 00:16:57;;;;;;;5.40;4.87;;;5.70;99.90;;;;;;4997666;28;20182;-71
2022/07/30 00:19:22;;;;;;;9.37;6.13;;;5.90;99.90;;;;;;4998487;28;20182;-71
2022/07/30 00:21:48;;;;;;;7.10;5.40;;;5.70;99.90;;;;;;4998277;28;20192;-71
2022/07/30 00:24:14;;;;;;;9.50;5.17;;;5.70;99.90;;;;;;4998138;28;20186;-71
2022/07/30 00:26:40;;;;;;;7.93;4.70;;;6.50;99.90;;;;;;5011597;28;20490;-71
2022/07/30 00:29:05;;;;;;;10.10;6.63;;;5.80;99.90;;;;;;4997851;28;20265;-71
2022/07/30 00:31:31;;;;;;;9.83;5.43;;;5.50;99.90;;;;;;4997626;28;20209;-71
2022/07/30 00:33:57;;;;;;;16.50;6.10;;;5.60;99.90;;;;;;4997921;28;20190;-70
2022/07/30 00:36:23;;;;;;;6.67;5.33;;;5.40;99.90;;;;;;4997898;28;20236;-70
2022/07/30 00:38:49;;;;;;;15.87;5.00;;;4.70;99.90;;;;;;4997766;28;20593;-71
2022/07/30 00:41:15;;;;;;;17.60;5.97;;;4.60;99.90;;;;;;4997808;28;20174;-71
2022/07/30 00:43:40;;;;;;;13.23;6.47;;;5.50;99.90;;;;;;4997628;28;20595;-71
2022/07/30 00:46:06;;;;;;;9.80;5.30;;;5.10;99.90;;;;;;4996986;28;20210;-71
2022/07/30 00:48:32;;;;;;;10.27;6.47;;;5.10;99.90;;;;;;5001347;28;20186;-71
2022/07/30 00:50:58;;;;;;;13.20;6.03;;;5.10;99.90;;;;;;5000655;28;20193;-71
2022/07/30 00:53:24;;;;;;;9.03;5.77;;;6.20;99.90;;;;;;4997850;28;20190;-71
2022/07/30 00:55:50;;;;;;;10.63;5.47;;;5.50;99.90;;;;;;4998030;28;20202;-71
2022/07/30 00:58:15;;;;;;;10.50;7.17;;;5.20;99.90;;;;;;4997511;28;20182;-72
2022/07/30 01:00:41;;;;;;;6.20;5.13;;;5.30;99.90;;;;;;4997230;28;20174;-71
2022/07/30 01:03:07;;;;;;;8.77;6.10;;;5.60;99.90;;;;;;4997754;28;20174;-71
2022/07/30 01:05:33;;;;;;;10.27;5.80;;;5.50;99.90;;;;;;4997507;28;20184;-73
2022/07/30 01:07:58;;;;;;;9.03;6.40;;;6.10;99.90;;;;;;4996996;28;20210;-72
2022/07/30 01:10:24;;;;;;;7.87;4.90;;;5.80;99.90;;;;;;4997040;28;20213;-71
2022/07/30 01:12:51;;;;;;;11.67;5.23;;;4.80;99.90;;;;;;4997248;28;20213;-71
2022/07/30 01:15:18;;;;;;;12.37;5.07;;;5.00;99.90;;;;;;4996839;28;20206;-72
2022/07/30 01:17:48;;;;;;;11.33;5.70;;;5.20;99.90;;;;;;4997217;28;20188;-71
2022/07/30 01:20:23;;;;;;;9.50;5.57;;;4.70;99.90;;;;;;4997415;28;20264;-71
2022/07/30 01:23:05;;;;;;;5.60;4.83;;;4.70;99.90;;;;;;4997412;28;20597;-70
2022/07/30 01:25:31;;;;;;;10.30;5.63;;;4.80;99.90;;;;;;4996587;28;20174;-72
2022/07/30 01:28:26;;;;;;;8.67;4.93;;;5.00;99.90;;;;;;5000379;28;20181;-71
2022/07/30 01:30:54;;;;;;;5.50;4.60;;;5.40;99.90;;;;;;4997885;28;20220;-71
2022/07/30 01:33:21;;;;;;;10.10;5.73;;;4.40;99.90;;;;;;4996627;28;20223;-70
2022/07/30 01:35:49;;;;;;;7.90;5.63;;;4.60;99.90;;;;;;4996828;28;20261;-71
2022/07/30 01:38:20;;;;;;;11.73;5.93;;;5.10;99.90;;;;;;4996653;28;20182;-72
2022/07/30 01:40:47;;;;;;;7.10;6.10;;;4.90;99.90;;;;;;4996682;28;20193;-71
2022/07/30 01:43:13;;;;;;;8.20;6.03;;;4.90;99.90;;;;;;4996446;28;20178;-71
2022/07/30 01:45:40;;;;;;;9.43;6.33;;;5.00;99.90;;;;;;4996718;28;20201;-69
2022/07/30 01:48:08;;;;;;;8.23;5.60;;;6.50;99.90;;;;;;4996618;28;20193;-70
2022/07/30 01:50:36;;;;;;;13.87;5.23;;;4.80;99.90;;;;;;4996307;28;20189;-70
2022/07/30 01:53:02;;;;;;;5.37;4.60;;;4.30;99.90;;;;;;4996499;28;20624;-70
2022/07/30 01:55:38;;;;;;;10.60;5.90;;;4.70;99.90;;;;;;4996273;28;20289;-72
2022/07/30 01:58:05;;;;;;;7.53;6.03;;;4.00;99.90;;;;;;4995929;28;20513;-71
2022/07/30 02:00:35;;;;;;;10.07;5.50;;;4.40;99.90;;;;;;4996243;28;20241;-71
2022/07/30 02:03:01;;;;;;;10.13;6.53;;;4.40;99.90;;;;;;4996533;28;20170;-72
2022/07/30 02:05:31;;;;;;;12.23;6.07;;;4.40;99.90;;;;;;5008538;28;20624;-71
2022/07/30 02:08:09;;;;;;;6.93;5.40;;;4.30;99.90;;;;;;4996330;28;20184;-71
2022/07/30 02:10:57;;;;;;;9.00;5.47;;;4.20;99.90;;;;;;4995908;28;20181;-70
2022/07/30 02:13:27;;;;;;;8.90;5.60;;;3.10;99.90;;;;;;5008980;28;20205;-70
2022/07/30 02:16:02;;;;;;;11.80;6.20;;;3.30;99.90;;;;;;4995720;28;20300;-71
2022/07/30 02:18:43;;;;;;;10.60;6.30;;;3.30;99.90;;;;;;4996012;28;20540;-71
2022/07/30 02:21:11;;;;;;;12.50;5.93;;;4.00;99.90;;;;;;4999674;28;20190;-72
2022/07/30 02:23:42;;;;;;;7.63;6.80;;;3.10;99.90;;;;;;4995910;28;20192;-72
2022/07/30 02:26:14;;;;;;;14.20;7.27;;;3.40;99.90;;;;;;4995499;28;20182;-70
2022/07/30 02:28:44;;;;;;;9.03;6.47;;;2.80;99.90;;;;;;4996127;28;20178;-70
2022/07/30 02:31:11;;;;;;;11.27;6.43;;;2.10;99.90;;;;;;4995701;28;20193;-71
2022/07/30 02:33:40;;;;;;;9.33;6.10;;;2.60;99.90;;;;;;4995812;28;20739;-70
2022/07/30 02:36:08;;;;;;;8.30;6.57;;;2.30;99.90;;;;;;4995429;28;20257;-70
2022/07/30 02:38:36;;;;;;;11.83;6.60;;;2.60;99.90;;;;;;5000343;28;20484;-70
2022/07/30 02:41:04;;;;;;;8.63;6.20;;;2.20;99.90;;;;;;4995314;28;20182;-71
2022/07/30 02:43:31;;;;;;;9.40;6.83;;;1.80;99.90;;;;;;5007806;28;20189;-71
2022/07/30 02:45:59;;;;;;;8.87;8.00;;;2.30;99.90;;;;;;4995429;28;20523;-70
2022/07/30 02:48:27;;;;;;;11.03;8.87;;;2.10;99.90;;;;;;4995860;28;20184;-70
2022/07/30 02:50:55;;;;;;;15.80;7.80;;;2.50;99.90;;;;;;4995450;28;20182;-71
2022/07/30 02:53:22;;;;;;;8.03;7.03;;;2.90;99.90;;;;;;4995631;28;20213;-70
2022/07/30 02:55:51;;;;;;;13.40;7.90;;;3.50;99.90;;;;;;5003768;28;20621;-71
2022/07/30 02:58:21;;;;;;;15.27;7.40;;;3.80;99.90;;;;;;4996048;28;20205;-71
2022/07/30 03:00:49;;;;;;;10.20;6.87;;;3.40;99.90;;;;;;4995268;28;20494;-71
2022/07/30 03:03:16;;;;;;;18.67;8.50;;;3.00;99.90;;;;;;4995574;28;20174;-70
2022/07/30 03:05:44;;;;;;;10.07;9.00;;;2.30;99.90;;;;;;4995483;28;20581;-70
2022/07/30 03:08:10;;;;;;;16.87;8.73;;;3.70;99.90;;;;;;4995324;28;20212;-71
2022/07/30 03:10:38;;;;;;;9.93;8.10;;;3.90;99.90;;;;;;5001918;28;20182;-70
2022/07/30 03:13:06;;;;;;;16.27;7.90;;;4.30;99.90;;;;;;4995336;28;20190;-72
2022/07/30 03:15:34;;;;;;;9.80;7.87;;;4.20;99.90;;;;;;4995164;28;20205;-72
2022/07/30 03:18:01;;;;;;;18.33;9.33;;;3.90;99.90;;;;;;4995300;28;20324;-71
2022/07/30 03:20:31;;;;;;;9.60;8.70;;;3.20;99.90;;;;;;4994207;28;20174;-72
2022/07/30 03:23:00;;;;;;;8.53;7.80;;;3.00;99.90;;;;;;4995263;28;20170;-70
2022/07/30 03:25:28;;;;;;;10.10;9.03;;;2.20;99.90;;;;;;4995065;28;20220;-71
2022/07/30 03:27:56;;;;;;;12.53;9.37;;;3.20;99.90;;;;;;4995449;28;20178;-71
2022/07/30 03:30:24;;;;;;;16.87;9.80;;;3.20;99.90;;;;;;4995055;28;20178;-70
2022/07/30 03:32:54;;;;;;;11.93;9.23;;;3.10;99.90;;;;;;4998875;28;20186;-71
2022/07/30 03:35:23;;;;;;;13.23;9.40;;;2.80;99.90;;;;;;5012003;28;20312;-71
2022/07/30 03:37:50;;;;;;;13.90;10.50;;;3.00;99.90;;;;;;4998819;28;20189;-71
2022/07/30 03:40:17;;;;;;;13.47;9.83;;;2.80;99.90;;;;;;4998607;28;20178;-70
2022/07/30 03:42:44;;;;;;;15.03;9.30;;;3.00;99.90;;;;;;4998789;28;20174;-71
2022/07/30 03:45:14;;;;;;;12.93;9.87;;;2.00;99.90;;;;;;4998523;28;20673;-71
2022/07/30 03:47:42;;;;;;;10.60;7.67;;;2.40;99.90;;;;;;4998532;28;20182;-69
2022/07/30 03:50:09;;;;;;;13.63;10.30;;;2.00;99.90;;;;;;4998575;28;20186;-72
2022/07/30 03:52:40;;;;;;;8.97;8.00;;;2.50;99.90;;;;;;4998371;28;20225;-72
2022/07/30 03:55:10;;;;;;;12.77;8.57;;;2.10;99.90;;;;;;4997744;28;20389;-71
2022/07/30 03:57:36;;;;;;;8.13;7.37;;;2.60;99.90;;;;;;4998306;28;20189;-70
2022/07/30 04:00:11;;;;;;;8.03;7.23;;;2.00;99.90;;;;;;4998631;28;20309;-71
2022/07/30 04:02:45;;;;;;;7.10;6.40;;;2.90;99.90;;;;;;4998465;28;20644;-72
2022/07/30 04:05:15;;;;;;;8.43;7.03;;;1.80;99.90;;;;;;4998254;28;20197;-71
2022/07/30 04:07:41;;;;;;;7.43;6.73;;;0.40;99.90;;;;;;4997922;28;20178;-71
2022/07/30 04:10:08;;;;;;;9.97;7.53;;;0.50;99.90;;;;;;4998283;28;20209;-71
2022/07/30 04:12:34;;;;;;;10.17;7.23;;;1.00;99.90;;;;;;5012456;28;20182;-71
2022/07/30 04:14:59;;;;;;;8.30;7.03;;;0.40;99.90;;;;;;4997982;28;20516;-71
2022/07/30 04:17:38;;;;;;;6.73;6.13;;;0.80;99.90;;;;;;4998199;28;20253;-71
2022/07/30 04:20:15;;;;;;;7.70;6.30;;;1.70;99.90;;;;;;4998234;28;20178;-71
2022/07/30 04:22:42;;;;;;;8.87;7.40;;;1.60;99.90;;;;;;4997621;28;20410;-71
2022/07/30 04:25:10;;;;;;;7.20;6.60;;;0.30;99.90;;;;;;4997927;28;20240;-70
2022/07/30 04:27:38;;;;;;;8.83;6.30;;;1.70;99.90;;;;;;4997900;28;20636;-70
2022/07/30 04:30:05;;;;;;;8.30;6.30;;;2.10;99.90;;;;;;5005022;28;20236;-70
2022/07/30 04:32:31;;;;;;;8.80;6.90;;;0.60;99.90;;;;;;4997934;28;20228;-71
2022/07/30 04:34:57;;;;;;;7.07;5.80;;;1.30;99.90;;;;;;5011037;28;20210;-70
2022/07/30 04:37:26;;;;;;;6.67;5.50;;;0.50;99.90;;;;;;5009868;28;20297;-70
2022/07/30 04:39:58;;;;;;;8.23;6.60;;;0.20;99.90;;;;;;4997959;28;20229;-71
2022/07/30 04:42:27;;;;;;;7.53;6.73;;;-0.50;99.90;;;;;;4997258;28;20175;-71
2022/07/30 04:44:54;;;;;;;7.67;7.00;;;0.00;99.90;;;;;;4998175;28;20192;-70
2022/07/30 04:47:20;;;;;;;6.80;6.13;;;0.30;99.90;;;;;;4997780;28;20202;-71
2022/07/30 04:49:47;;;;;;;7.50;6.80;;;-0.40;99.90;;;;;;4997600;28;20186;-71
2022/07/30 04:52:15;;;;;;;8.30;6.03;;;-0.10;99.90;;;;;;4997559;28;20185;-71
2022/07/30 04:54:52;;;;;;;10.43;7.73;;;0.60;99.90;;;;;;4997447;28;20869;-71
2022/07/30 04:57:19;;;;;;;7.50;5.57;;;0.80;99.90;;;;;;4997675;28;20593;-71
2022/07/30 04:59:45;;;;;;;5.90;5.50;;;0.70;99.90;;;;;;4997390;28;20597;-71
2022/07/30 05:02:14;;;;;;;7.67;6.13;;;0.60;99.90;;;;;;4996593;28;20204;-71
2022/07/30 05:04:40;;;;;;;7.47;6.50;;;0.20;99.90;;;;;;4997304;28;20285;-70
2022/07/30 05:07:07;;;;;;;7.87;6.97;;;0.40;99.90;;;;;;4997635;28;20209;-70
2022/07/30 05:09:33;;;;;;;6.63;6.13;;;0.70;99.90;;;;;;4997147;28;20486;-71
2022/07/30 05:11:59;;;;;;;11.00;7.60;;;0.10;99.90;;;;;;4997213;28;20192;-72
2022/07/30 05:14:25;;;;;;;8.70;7.47;;;0.70;99.90;;;;;;4997097;28;20181;-72
2022/07/30 05:16:53;;;;;;;7.00;6.20;;;0.40;99.90;;;;;;4996982;28;20237;-71
2022/07/30 05:19:20;;;;;;;7.27;6.60;;;0.40;99.90;;;;;;4997537;28;20225;-71
2022/07/30 05:21:46;;;;;;;10.43;7.73;;;0.50;99.90;;;;;;4998847;28;20601;-72
2022/07/30 05:24:12;;;;;;;8.23;7.07;;;0.50;99.90;;;;;;4996941;28;20221;-70
2022/07/30 05:26:38;;;;;;;7.50;6.90;;;0.10;99.90;;;;;;4997368;28;20189;-71
2022/07/30 05:29:04;;;;;;;7.27;6.00;;;-0.30;99.90;;;;;;4996862;28;20194;-70
2022/07/30 05:31:30;;;;;;;8.30;7.50;;;-0.40;99.90;;;;;;4996831;28;20174;-71
2022/07/30 05:33:56;;;;;;;7.50;6.90;;;-0.40;99.90;;;;;;4996622;28;20291;-71
2022/07/30 05:36:21;;;;;;;9.40;8.10;;;0.60;99.90;;;;;;4996947;28;20692;-71
2022/07/30 05:38:48;;;;;;;11.77;8.27;;;0.50;99.90;;;;;;4996733;28;20174;-70
2022/07/30 05:41:14;;;;;;;9.30;8.37;;;1.60;99.90;;;;;;5001292;28;21122;-70
2022/07/30 05:43:40;;;;;;;8.30;7.57;;;0.60;99.90;;;;;;4996517;28;20245;-70
2022/07/30 05:46:06;;;;;;;9.03;8.30;;;0.90;99.90;;;;;;4996217;28;20514;-71
2022/07/30 05:48:34;;;;;;;9.53;8.80;;;1.30;99.90;;;;;;4996431;28;20182;-70
2022/07/30 05:51:01;;;;;;;10.93;9.67;;;1.20;99.90;;;;;;4996383;28;20252;-72
2022/07/30 05:53:26;;;;;;;10.30;8.37;;;2.00;99.90;;;;;;4996508;28;20217;-71
2022/07/30 05:55:52;;;;;;;14.17;8.57;;;1.80;99.90;;;;;;4995325;28;20231;-71
2022/07/30 05:58:18;;;;;;;8.77;7.67;;;0.90;99.90;;;;;;4996266;28;20173;-71
2022/07/30 06:00:44;;;;;;;11.17;8.30;;;1.30;99.90;;;;;;4996178;28;20182;-72
2022/07/30 06:03:10;;;;;;;11.33;8.00;;;1.00;99.90;;;;;;4996395;28;20189;-71
2022/07/30 06:05:36;;;;;;;12.77;8.97;;;1.00;99.90;;;;;;5008599;28;20622;-72
2022/07/30 06:08:02;;;;;;;8.77;7.83;;;0.80;99.90;;;;;;4996430;28;20205;-73
2022/07/30 06:10:28;;;;;;;10.13;7.83;;;1.70;99.90;;;;;;5000193;28;20181;-70
2022/07/30 06:12:54;;;;;;;9.70;7.83;;;0.60;99.90;;;;;;5001312;28;20201;-72
2022/07/30 06:15:20;;;;;;;7.33;6.33;;;0.30;99.90;;;;;;5001018;28;20206;-71
2022/07/30 06:17:47;;;;;;;9.13;7.10;;;1.70;99.90;;;;;;5011092;28;20189;-73
2022/07/30 06:20:14;;;;;;;8.13;5.70;;;2.10;99.90;;;;;;5001847;28;20181;-71
2022/07/30 06:22:40;;;;;;;6.73;5.13;;;0.70;99.90;;;;;;4995896;28;20182;-72
2022/07/30 06:25:07;;;;;;;14.40;4.77;;;-0.10;99.90;;;;;;4995677;28;20252;-71
2022/07/30 06:27:33;;;;;;;9.07;5.03;;;1.00;99.90;;;;;;5000629;28;20170;-72
2022/07/30 06:30:00;;;;;;;9.33;5.20;;;0.90;99.90;;;;;;4996566;28;20221;-71
2022/07/30 06:32:25;;;;;;;4.47;4.07;;;1.00;99.90;;;;;;4999839;28;20244;-71
2022/07/30 06:34:51;;;;;;;7.30;4.50;;;0.40;99.90;;;;;;4995508;28;20194;-71
2022/07/30 06:37:17;;;;;;;4.97;3.63;;;-0.60;99.90;;;;;;4996082;28;20174;-72
2022/07/30 06:39:43;;;;;;;13.07;5.23;;;1.20;99.90;;;;;;5001627;28;20178;-71
2022/07/30 06:42:08;;;;;;;4.90;4.43;;;1.50;99.90;;;;;;5005588;28;20243;-70
2022/07/30 06:44:34;;;;;;;4.23;3.27;;;1.90;99.90;;;;;;5003917;28;20185;-71
2022/07/30 06:47:00;;;;;;;6.73;3.10;;;2.90;99.90;;;;;;5006154;28;20568;-72
2022/07/30 06:49:26;;;;;;;8.67;4.40;;;1.50;99.90;;;;;;4997107;28;20208;-74
2022/07/30 06:51:52;;;;;;;6.17;4.10;;;3.20;99.90;;;;;;5008465;28;20216;-72
2022/07/30 06:54:18;;;;;;;8.13;3.43;;;5.20;99.90;;;;;;4997466;28;20191;-71
2022/07/30 06:56:43;;;;;;;8.20;2.70;;;6.30;99.90;;;;;;4995482;28;20225;-70
2022/07/30 06:59:09;;;;;;;6.67;3.63;;;6.10;99.90;;;;;;5003553;28;20186;-71
2022/07/30 07:01:35;;;;;;;3.70;3.20;;;6.50;99.90;;;;;;4995493;28;20253;-71
2022/07/30 07:04:02;;;;;;;8.43;3.83;;;6.70;99.90;;;;;;4995188;28;20197;-71
2022/07/30 07:06:28;;;;;;;4.33;3.30;;;6.80;99.90;;;;;;5000264;28;20232;-72
2022/07/30 07:08:53;;;;;;;9.00;4.47;;;6.60;99.90;;;;;;4999395;28;20280;-72
2022/07/30 07:11:19;;;;;;;4.43;2.87;;;6.70;99.90;;;;;;4999344;28;20600;-71
2022/07/30 07:13:45;;;;;;;3.23;2.60;;;5.50;99.90;;;;;;4999007;28;20325;-71
2022/07/30 07:16:11;;;;;;;4.00;2.47;;;5.10;99.90;;;;;;4998341;28;20225;-71
2022/07/30 07:18:36;;;;;;;6.27;3.57;;;5.10;99.90;;;;;;5007127;28;20178;-71
2022/07/30 07:21:02;;;;;;;5.47;2.60;;;5.20;99.90;;;;;;5009864;28;20260;-71
2022/07/30 07:23:28;;;;;;;4.33;2.27;;;4.90;99.90;;;;;;5008084;28;20205;-70
2022/07/30 07:25:55;;;;;;;6.73;2.03;;;5.90;99.90;;;;;;5012298;28;20272;-71
2022/07/30 07:28:20;;;;;;;3.00;2.70;;;5.70;99.90;;;;;;5003345;28;20186;-72
2022/07/30 07:30:46;;;;;;;2.80;1.93;;;5.60;99.90;;;;;;4998487;28;20193;-71
2022/07/30 07:33:12;;;;;;;2.60;1.70;;;5.30;99.90;;;;;;4998402;28;20197;-71
2022/07/30 07:35:38;;;;;;;2.70;1.57;;;5.70;99.90;;;;;;4998952;28;20273;-71
2022/07/30 07:38:04;;;;;;;3.10;1.53;;;5.40;99.90;;;;;;4998611;28;20514;-72
2022/07/30 07:40:30;;;;;;;5.37;1.87;;;5.00;99.90;;;;;;5002619;28;20553;-70
2022/07/30 07:42:55;;;;;;;1.53;1.20;;;4.70;99.90;;;;;;4997132;28;20182;-71
2022/07/30 07:45:21;;;;;;;2.27;1.57;;;4.90;99.90;;;;;;5000939;28;20201;-71
2022/07/30 07:47:48;;;;;;;3.53;1.60;;;4.70;99.90;;;;;;4998750;28;20593;-71
2022/07/30 07:50:17;;;;;;;3.17;1.47;;;4.90;99.90;;;;;;4998132;28;20309;-70
2022/07/30 07:52:43;;;;;;;3.30;1.83;;;4.90;99.90;;;;;;4998679;28;20185;-71
2022/07/30 07:55:09;;;;;;;2.23;1.40;;;4.70;99.90;;;;;;4997167;28;20323;-70
2022/07/30 07:57:43;;;;;;;2.73;1.40;;;6.30;99.90;;;;;;4997165;28;20178;-72
2022/07/30 08:00:13;;;;;;;4.30;3.37;;;6.90;99.90;;;;;;4998191;28;20200;-71
2022/07/30 08:02:39;;;;;;;7.13;2.00;;;6.20;99.90;;;;;;4998297;28;20182;-71
2022/07/30 08:05:06;;;;;;;4.00;1.90;;;6.40;99.90;;;;;;4998070;28;20182;-71
2022/07/30 08:07:33;;;;;;;2.50;1.60;;;6.10;99.90;;;;;;4997838;28;20182;-71
2022/07/30 08:09:59;;;;;;;4.03;1.37;;;6.10;99.90;;;;;;4998168;28;20189;-71
2022/07/30 08:12:26;;;;;;;1.87;1.17;;;6.30;99.90;;;;;;4998020;28;20192;-71
2022/07/30 08:14:52;;;;;;;3.70;1.57;;;7.10;99.90;;;;;;4997708;28;20205;-72
2022/07/30 08:17:18;;;;;;;1.83;1.47;;;9.20;99.90;;;;;;4997290;28;20178;-72
2022/07/30 08:19:45;;;;;;;3.10;1.10;;;11.20;99.90;;;;;;4997917;28;20182;-71
2022/07/30 08:22:11;;;;;;;3.83;1.70;;;12.10;99.90;;;;;;5000792;28;20178;-72
2022/07/30 08:24:37;;;;;;;2.93;1.23;;;11.60;99.90;;;;;;5003471;28;20174;-71
2022/07/30 08:27:03;;;;;;;1.70;1.40;;;11.50;99.80;;;;;;4997922;28;20197;-71
2022/07/30 08:29:29;;;;;;;3.63;1.30;;;11.60;99.80;;;;;;5002603;28;20493;-73
2022/07/30 08:31:55;;;;;;;2.33;2.13;;;9.70;99.90;;;;;;4997931;28;20186;-71
2022/07/30 08:34:21;;;;;;;2.67;1.33;;;9.60;99.90;;;;;;5010924;28;20218;-73
2022/07/30 08:36:47;;;;;;;4.57;2.20;;;7.20;98.20;;;;;;4999628;28;20216;-72
2022/07/30 08:39:13;;;;;;;3.50;1.70;;;5.60;98.10;;;;;;4997323;28;20170;-72
2022/07/30 08:41:40;;;;;;;2.70;1.57;;;4.20;98.20;;;;;;5010923;28;20177;-73
2022/07/30 08:44:09;;;;;;;1.47;1.37;;;1.10;96.30;;;;;;5001220;28;20210;-71
2022/07/30 08:46:40;;;;;;;1.63;1.37;;;-1.60;95.60;;;;;;4997312;28;20480;-71
2022/07/30 08:49:06;;;;;;;2.20;1.17;;;-5.90;93.40;;;;;;4998707;28;20190;-71
2022/07/30 08:51:34;;;;;;;3.07;1.07;;;-7.30;91.50;;;;;;5003585;28;20190;-72
2022/07/30 08:54:01;;;;;;;2.63;1.30;;;-7.60;91.80;;;;;;4997556;28;20186;-71
2022/07/30 08:56:28;;;;;;;1.93;1.80;;;-5.90;92.30;;;;;;5009324;28;20205;-72
2022/07/30 08:58:55;;;;;;;3.60;1.33;;;-10.70;87.90;;;;;;4996953;28;20182;-76
2022/07/30 09:01:21;;;;;;;2.03;1.40;;;-10.60;90.00;;;;;;4997023;28;20312;-75
2022/07/30 09:03:47;;;;;;;3.40;1.87;;;-14.60;86.30;;;;;;4997515;28;20188;-72
2022/07/30 09:06:14;;;;;;;1.83;1.17;;;-14.90;87.80;;;;;;5002821;28;20620;-73
2022/07/30 09:08:41;;;;;;;1.80;1.50;;;19.40;98.20;;;;;;5010156;28;20474;-70
2022/07/30 09:11:07;;;;;;;3.10;1.33;;;22.20;99.30;;;;;;5001335;28;20212;-72
2022/07/30 09:13:36;;;;;;;4.20;1.67;;;22.30;98.40;;;;;;4998062;28;20286;-71
2022/07/30 09:16:04;;;;;;;4.30;1.40;;;22.40;98.90;;;;;;4997077;28;20630;-71
2022/07/30 09:18:35;;;;;;;1.23;1.03;;;22.40;98.50;;;;;;4997387;28;20844;-70
2022/07/30 09:21:14;;;;;;;1.87;1.30;;;22.30;98.20;;;;;;4996784;28;20178;-70
2022/07/30 09:23:40;;;;;;;2.63;1.47;;;22.30;97.70;;;;;;4996855;28;20299;-71
2022/07/30 09:26:05;;;;;;;2.30;1.57;;;22.10;97.70;;;;;;4996907;28;20563;-72
2022/07/30 09:28:33;;;;;;;1.60;1.50;;;21.90;97.10;;;;;;4996301;28;20193;-72
2022/07/30 09:30:59;;;;;;;2.50;1.63;;;22.30;96.50;;;;;;4996907;28;20797;-72
2022/07/30 09:33:36;;;;;;;2.23;1.10;;;22.10;96.50;;;;;;4998233;28;20185;-71
2022/07/30 09:36:07;;;;;;;3.77;1.70;;;21.60;95.80;;;;;;4996277;28;20201;-71
2022/07/30 09:38:51;;;;;;;3.17;1.40;;;21.30;95.50;;;;;;5008075;28;20793;-72
2022/07/30 09:41:24;;;;;;;3.23;1.20;;;23.40;96.30;;;;;;5002117;28;20169;-73
2022/07/30 09:43:51;;;;;;;3.03;1.53;;;23.60;95.50;;;;;;5006659;28;20200;-73
2022/07/30 09:46:17;;;;;;;4.77;3.57;;;23.40;96.50;;;;;;5000523;28;20189;-70
2022/07/30 09:48:47;;;;;;;6.53;5.37;;;23.40;96.30;;;;;;4995377;28;20185;-73
2022/07/30 09:51:13;;;;;;;2.10;1.87;;;23.50;96.00;;;;;;4996611;28;20197;-74
2022/07/30 09:54:00;;;;;;;4.47;1.27;;;22.10;94.80;;;;;;4997726;28;20260;-73
2022/07/30 09:56:27;;;;;;;3.00;1.20;;;-40.00;62.80;;;;;;4996431;28;20656;-73
2022/07/30 09:58:53;;;;;;;2.10;1.30;;;-40.00;61.50;;;;;;4996514;28;20178;-75
2022/07/30 10:01:20;;;;;;;2.45;1.80;;;-40.00;63.70;;;;;;4995164;28;20441;-74
2022/07/30 10:03:46;;;;;;;2.30;1.57;;;-14.30;80.40;;;;;;4995755;28;20174;-73
2022/07/30 10:06:12;;;;;;;10.50;2.47;;;24.10;97.40;;;;;;4995962;28;20252;-73
2022/07/30 10:08:51;;;;;;;1.43;1.03;;;24.20;97.60;;;;;;4995841;28;20577;-73
2022/07/30 10:11:22;;;;;;;3.00;1.47;;;24.20;97.00;;;;;;4995525;28;20193;-72
2022/07/30 10:13:55;;;;;;;2.13;1.53;;;23.90;95.10;;;;;;4998865;28;20186;-71
2022/07/30 10:16:25;;;;;;;2.50;1.33;;;24.00;95.10;;;;;;4995285;28;20206;-71
2022/07/30 10:18:51;;;;;;;2.20;1.73;;;24.00;95.70;;;;;;5003513;28;20476;-73
2022/07/30 10:21:18;;;;;;;2.80;1.83;;;23.20;95.10;;;;;;4998448;28;20241;-73
2022/07/30 10:23:44;;;;;;;3.57;1.73;;;-40.00;62.30;;;;;;4996227;28;20233;-74
2022/07/30 10:26:11;;;;;;;1.63;1.23;;;24.40;96.50;;;;;;4995399;28;20485;-72
2022/07/30 10:28:39;;;;;;;3.87;2.30;;;25.30;95.70;;;;;;4995788;28;20185;-73
2022/07/30 10:31:05;;;;;;;4.83;1.77;;;25.70;95.40;;;;;;5007986;28;20178;-72
2022/07/30 10:33:30;;;;;;;3.50;1.87;;;25.50;95.10;;;;;;4995920;28;20181;-72
2022/07/30 10:35:57;;;;;;;3.07;1.57;;;-40.00;60.70;;;;;;4995869;28;20669;-74
2022/07/30 10:38:33;;;;;;;4.40;1.40;;;-0.60;85.00;;;;;;5007386;28;20178;-74
2022/07/30 10:41:27;;;;;;;4.37;2.07;;;26.40;95.40;;;;;;4994416;28;20181;-73
2022/07/30 10:44:26;;;;;;;4.23;1.83;;;26.00;92.20;;;;;;4995579;28;20196;-74
2022/07/30 10:47:05;;;;;;;1.37;1.27;;;26.20;92.00;;;;;;4998360;28;20185;-73
2022/07/30 10:49:31;;;;;;;2.80;2.37;;;26.10;91.60;;;;;;4999514;28;20193;-73
2022/07/30 10:51:57;;;;;;;4.23;2.23;;;25.90;93.10;;;;;;5001762;28;20839;-73
2022/07/30 10:54:46;;;;;;;1.77;1.30;;;26.10;93.70;;;;;;4995157;28;20541;-73
2022/07/30 10:57:19;;;;;;;2.13;1.57;;;26.20;93.40;;;;;;4995833;28;20213;-72
2022/07/30 10:59:51;;;;;;;2.40;2.10;;;26.00;92.50;;;;;;4995635;28;20644;-73
2022/07/30 11:02:19;;;;;;;6.73;2.00;;;26.10;94.00;;;;;;4995574;28;20181;-73
2022/07/30 11:04:44;;;;;;;1.77;1.43;;;26.20;91.50;;;;;;4995499;28;20269;-72
2022/07/30 11:07:28;;;;;;;1.67;1.57;;;25.80;91.20;;;;;;4995330;28;20281;-75
2022/07/30 11:09:59;;;;;;;1.57;1.47;;;25.60;90.40;;;;;;4995425;28;20185;-73
2022/07/30 11:12:40;;;;;;;3.97;2.10;;;25.60;91.80;;;;;;5005524;28;20272;-73
2022/07/30 11:15:07;;;;;;;2.27;1.43;;;-40.00;53.20;;;;;;4994487;28;20199;-77
2022/07/30 11:17:59;;;;;;;3.30;2.10;;;-40.00;54.20;;;;;;5001937;28;20291;-73
2022/07/30 11:20:26;;;;;;;3.67;1.87;;;-40.00;52.60;;;;;;4995382;28;20182;-73
2022/07/30 11:22:52;;;;;;;4.10;1.43;;;-40.00;54.00;;;;;;4995012;28;20186;-75
2022/07/30 11:25:21;;;;;;;4.83;1.87;;;-40.00;52.50;;;;;;5000240;28;20182;-74
2022/07/30 11:27:49;;;;;;;3.13;1.73;;;-40.00;50.20;;;;;;5002201;28;20189;-73
2022/07/30 11:30:15;;;;;;;1.50;1.40;;;-40.00;50.00;;;;;;5006748;28;20185;-73
2022/07/30 11:33:03;;;;;;;2.10;1.67;;;-40.00;49.50;;;;;;5003054;28;20187;-73
2022/07/30 11:35:30;;;;;;;4.20;2.10;;;-40.00;50.40;;;;;;5004121;28;20263;-74
2022/07/30 11:37:56;;;;;;;3.90;1.77;;;-40.00;51.40;;;;;;5001815;28;20185;-73
2022/07/30 11:40:24;;;;;;;5.77;2.73;;;-40.00;50.10;;;;;;5005899;28;20182;-73
2022/07/30 11:42:51;;;;;;;4.70;1.97;;;-40.00;52.50;;;;;;5003919;28;20316;-72
2022/07/30 11:45:17;;;;;;;2.90;1.93;;;-40.00;49.70;;;;;;5002126;28;20272;-74
2022/07/30 11:47:44;;;;;;;2.87;2.53;;;-40.00;49.70;;;;;;5002622;28;20266;-74
2022/07/30 11:50:22;;;;;;;2.57;2.37;;;-40.00;49.40;;;;;;5003753;28;20185;-74
2022/07/30 11:52:53;;;;;;;2.73;1.70;;;-40.00;51.00;;;;;;5003820;28;20585;-74
2022/07/30 11:55:24;;;;;;;5.47;2.37;;;-40.00;49.40;;;;;;5006509;28;20305;-75
2022/07/30 11:57:50;;;;;;;2.47;1.73;;;-40.00;47.60;;;;;;5008120;28;20643;-74
2022/07/30 12:00:17;;;;;;;5.37;1.80;;;-40.00;47.40;;;;;;5006401;28;20237;-75
2022/07/30 12:02:44;;;;;;;3.70;2.00;;;-40.00;46.50;;;;;;5007212;28;20178;-75
2022/07/30 12:05:10;;;;;;;4.37;1.93;;;-40.00;45.20;;;;;;5009058;28;20174;-74
2022/07/30 12:07:36;;;;;;;2.10;1.47;;;29.30;84.20;;;;;;5003939;28;20169;-74
2022/07/30 12:10:16;;;;;;;2.40;1.67;;;29.60;86.60;;;;;;5007162;28;20466;-73
2022/07/30 12:12:43;;;;;;;2.25;2.05;;;30.10;82.00;;;;;;5006205;28;20601;-73
2022/07/30 12:15:10;;;;;;;5.45;1.40;;;30.10;76.30;;;;;;5003165;28;20273;-73
2022/07/30 12:17:43;;;;;;;5.00;2.22;;;30.00;77.40;;;;;;4997695;28;20288;-72
2022/07/30 12:20:17;;;;;;;6.93;2.38;;;29.90;80.00;;;;;;4997127;28;20216;-73
2022/07/30 12:22:43;;;;;;;5.70;1.60;;;29.70;81.80;;;;;;4998163;28;20178;-73
2022/07/30 12:25:10;;;;;;;4.50;2.15;;;29.60;78.30;;;;;;5002306;28;20178;-73
2022/07/30 12:27:36;;;;;;;2.72;1.20;;;29.40;77.10;;;;;;4997691;28;20235;-74
2022/07/30 12:30:04;;;;;;;3.88;1.40;;;28.70;77.00;;;;;;4997918;28;20182;-74
2022/07/30 12:32:30;;;;;;;4.83;2.23;;;26.60;76.70;;;;;;4996829;28;20177;-72
2022/07/30 12:34:57;;;;;;;3.93;1.77;;;28.10;77.80;;;;;;4996384;28;20174;-73
2022/07/30 12:37:23;;;;;;;2.20;1.67;;;28.50;80.40;;;;;;5003262;28;20597;-74
2022/07/30 12:40:03;;;;;;;1.50;1.40;;;28.50;80.00;;;;;;5003107;28;20178;-73
2022/07/30 12:42:29;;;;;;;5.27;2.13;;;28.90;80.70;;;;;;4997931;28;20233;-72
2022/07/30 12:44:55;;;;;;;2.45;1.70;;;27.70;77.00;;;;;;4997606;28;20197;-72
2022/07/30 12:47:29;;;;;;;4.18;1.92;;;27.00;77.70;;;;;;4997692;28;20493;-72
2022/07/30 12:49:59;;;;;;;1.42;1.33;;;29.40;78.30;;;;;;4997259;28;20186;-72
2022/07/30 12:52:26;;;;;;;2.42;2.17;;;31.00;76.60;;;;;;4996715;28;20182;-74
2022/07/30 12:55:01;;;;;;;5.50;1.75;;;1.40;54.90;;;;;;5004641;28;20210;-73
2022/07/30 12:57:28;;;;;;;1.77;1.20;;;6.60;56.40;;;;;;5000942;28;20323;-73